Time;durP1;ratioP1;P1;durP2;ratioP2;P2;SDS_P1;SDS_P2;PMS_P1;PMS_P2;Temp;Humidity;BMP_temperature;BMP_pressure;BME280_temperature;BME280_humidity;BME280_pressure;Samples;Min_cycle;Max_cycle;Signal;HPM_P1;HPM_P2
2022/12/24 00:00:01;;;;;;;65.55;44.95;;;;;;;6.92;100.00;98382.41;5054374;28;20028;-79
2022/12/24 00:02:26;;;;;;;60.17;41.83;;;;;;;6.92;100.00;98382.41;5054320;28;20021;-79
2022/12/24 00:04:51;;;;;;;53.20;39.38;;;;;;;6.91;100.00;98373.78;5052832;28;20071;-79
2022/12/24 00:07:17;;;;;;;53.45;40.40;;;;;;;6.93;100.00;98382.31;5054010;28;20052;-79
2022/12/24 00:09:42;;;;;;;51.00;38.42;;;;;;;6.91;100.00;98363.44;5053898;28;20016;-80
2022/12/24 00:12:07;;;;;;;52.97;40.25;;;;;;;6.89;100.00;98351.50;5053622;28;20056;-80
2022/12/24 00:14:33;;;;;;;58.38;39.05;;;;;;;6.95;100.00;98364.09;5052750;28;20025;-80
2022/12/24 00:16:58;;;;;;;51.38;37.10;;;;;;;6.94;100.00;98370.19;5053720;28;20134;-80
2022/12/24 00:19:23;;;;;;;50.85;35.00;;;;;;;6.93;100.00;98368.53;5053810;28;20075;-79
2022/12/24 00:21:49;;;;;;;48.78;35.55;;;;;;;6.91;100.00;98362.59;5052429;28;20024;-79
2022/12/24 00:24:14;;;;;;;54.67;37.63;;;;;;;6.99;100.00;98378.53;5053421;28;20024;-80
2022/12/24 00:26:39;;;;;;;68.15;43.08;;;;;;;6.94;100.00;98375.38;5053586;28;20108;-79
2022/12/24 00:29:05;;;;;;;70.93;45.80;;;;;;;6.92;100.00;98364.28;5053682;28;20096;-80
2022/12/24 00:31:31;;;;;;;79.57;47.92;;;;;;;7.00;100.00;98375.06;5053549;28;20104;-80
2022/12/24 00:33:56;;;;;;;79.00;49.97;;;;;;;6.96;100.00;98366.63;5053477;28;20768;-80
2022/12/24 00:36:22;;;;;;;68.93;45.53;;;;;;;7.01;100.00;98379.31;5053359;28;20020;-79
2022/12/24 00:38:47;;;;;;;54.22;38.95;;;;;;;6.97;100.00;98362.28;5053476;28;20057;-80
2022/12/24 00:41:23;;;;;;;69.85;47.42;;;;;;;7.00;100.00;98365.53;5052960;28;20104;-80
2022/12/24 00:43:53;;;;;;;60.08;41.28;;;;;;;6.97;100.00;98357.94;5053356;28;20029;-79
2022/12/24 00:46:18;;;;;;;45.42;34.08;;;;;;;7.02;100.00;98369.78;5053065;28;20025;-79
2022/12/24 00:48:44;;;;;;;49.40;35.97;;;;;;;6.97;100.00;98378.63;5053399;28;20108;-80
2022/12/24 00:51:09;;;;;;;48.72;36.03;;;;;;;6.99;100.00;98392.34;5052866;28;20471;-80
2022/12/24 00:53:34;;;;;;;47.25;35.47;;;;;;;7.00;100.00;98396.59;5053161;28;20373;-80
2022/12/24 00:56:00;;;;;;;44.80;33.13;;;;;;;7.02;100.00;98406.03;5053058;28;20086;-80
2022/12/24 00:58:25;;;;;;;39.15;31.77;;;;;;;6.95;100.00;98377.91;5053281;28;20021;-80
2022/12/24 01:00:50;;;;;;;47.22;34.88;;;;;;;7.00;100.00;98400.94;5051708;28;20048;-80
2022/12/24 01:03:15;;;;;;;37.33;29.50;;;;;;;7.00;100.00;98388.84;5051151;28;20021;-80
2022/12/24 01:05:41;;;;;;;39.05;31.65;;;;;;;6.95;100.00;98369.28;5052738;28;20024;-80
2022/12/24 01:08:06;;;;;;;36.75;29.45;;;;;;;7.02;100.00;98387.91;5052693;28;20021;-80
2022/12/24 01:10:31;;;;;;;37.85;28.67;;;;;;;7.03;100.00;98390.41;5053005;28;20021;-80
2022/12/24 01:13:01;;;;;;;36.97;28.58;;;;;;;6.97;100.00;98376.06;5052976;28;20024;-79
2022/12/24 01:15:27;;;;;;;36.20;29.70;;;;;;;7.00;100.00;98381.06;5053022;28;20024;-79
2022/12/24 01:17:52;;;;;;;41.30;30.58;;;;;;;6.95;100.00;98382.22;5052785;28;20021;-79
2022/12/24 01:20:17;;;;;;;32.17;25.48;;;;;;;6.95;100.00;98372.72;5052538;28;20033;-79
2022/12/24 01:22:43;;;;;;;31.30;25.45;;;;;;;6.92;100.00;98367.69;5052698;28;20487;-79
2022/12/24 01:25:08;;;;;;;34.25;27.55;;;;;;;6.96;100.00;98371.78;5051496;28;20021;-80
2022/12/24 01:27:34;;;;;;;33.53;25.83;;;;;;;7.00;100.00;98369.88;5052712;28;20100;-80
2022/12/24 01:29:59;;;;;;;31.27;24.73;;;;;;;6.87;100.00;98342.94;5052326;28;20025;-80
2022/12/24 01:32:24;;;;;;;29.42;23.48;;;;;;;6.97;100.00;98359.69;5052601;28;20049;-79
2022/12/24 01:34:50;;;;;;;34.47;25.63;;;;;;;6.97;100.00;98375.22;5052402;28;20040;-79
2022/12/24 01:37:15;;;;;;;37.25;28.10;;;;;;;6.95;100.00;98377.03;5052062;28;20365;-79
2022/12/24 01:39:40;;;;;;;35.42;26.65;;;;;;;6.88;100.00;98361.00;5052490;28;20052;-79
2022/12/24 01:45:40;;;;;;;40.25;31.48;;;;;;;6.86;100.00;98357.66;5051792;28;20043;-79
2022/12/24 01:48:20;;;;;;;34.33;26.85;;;;;;;6.82;100.00;98353.53;5051894;28;20017;-79
2022/12/24 01:50:47;;;;;;;33.65;26.65;;;;;;;6.81;100.00;98354.47;5052361;28;20067;-79
2022/12/24 01:53:14;;;;;;;31.27;24.98;;;;;;;6.82;100.00;98363.91;5051583;28;20031;-79
2022/12/24 01:55:41;;;;;;;32.25;25.80;;;;;;;6.82;100.00;98369.06;5052088;28;20020;-79
2022/12/24 01:58:08;;;;;;;31.13;24.30;;;;;;;6.75;100.00;98363.41;5051209;28;20079;-79
2022/12/24 02:00:33;;;;;;;29.45;23.00;;;;;;;6.74;100.00;98356.56;5052133;28;20041;-79
2022/12/24 02:02:59;;;;;;;29.95;23.65;;;;;;;6.83;100.00;98369.94;5051810;28;20369;-79
2022/12/24 02:05:34;;;;;;;26.63;21.25;;;;;;;6.79;100.00;98358.91;5052261;28;20104;-79
2022/12/24 02:08:02;;;;;;;29.77;22.55;;;;;;;6.74;100.00;98342.75;5051486;28;20021;-79
2022/12/24 02:10:27;;;;;;;35.92;26.80;;;;;;;6.81;100.00;98359.66;5051803;28;20067;-79
2022/12/24 02:12:53;;;;;;;37.63;28.42;;;;;;;6.71;100.00;98350.69;5051598;28;20017;-79
2022/12/24 02:15:19;;;;;;;29.92;24.25;;;;;;;6.64;100.00;98347.56;5051640;28;20036;-79
2022/12/24 02:18:13;;;;;;;31.23;25.45;;;;;;;6.65;100.00;98351.81;5051473;28;20021;-79
2022/12/24 02:20:53;;;;;;;33.25;25.80;;;;;;;6.71;100.00;98368.81;5051494;28;20031;-79
2022/12/24 02:23:48;;;;;;;28.73;22.55;;;;;;;6.72;100.00;98362.72;5051250;28;20075;-79
2022/12/24 02:26:22;;;;;;;27.08;22.10;;;;;;;6.73;100.00;98367.78;5051174;28;20044;-79
2022/12/24 02:29:08;;;;;;;29.85;22.67;;;;;;;6.75;100.00;98357.38;5051394;28;20049;-79
2022/12/24 02:31:40;;;;;;;28.85;22.70;;;;;;;6.72;100.00;98347.19;5051299;28;20040;-79
2022/12/24 02:34:28;;;;;;;28.40;23.08;;;;;;;6.74;100.00;98358.28;5051321;28;20025;-79
2022/12/24 02:37:06;;;;;;;30.35;23.48;;;;;;;6.73;100.00;98346.25;5028920;28;20125;-79
2022/12/24 02:39:45;;;;;;;30.90;25.58;;;;;;;6.67;100.00;98349.19;5028813;28;20045;-79
2022/12/24 02:42:14;;;;;;;25.65;21.38;;;;;;;6.70;100.00;98360.22;5028455;28;20038;-79
2022/12/24 02:45:29;;;;;;;26.95;20.80;;;;;;;6.70;100.00;98367.13;5028607;28;20103;-79
2022/12/24 02:47:55;;;;;;;21.20;17.70;;;;;;;6.71;100.00;98361.03;4951048;29;20149;-79
2022/12/24 02:50:21;;;;;;;21.40;17.92;;;;;;;6.70;100.00;98349.88;4950315;29;20046;-79
2022/12/24 02:52:47;;;;;;;19.75;16.60;;;;;;;6.77;100.00;98365.06;4950645;29;20019;-79
2022/12/24 02:55:18;;;;;;;19.52;16.35;;;;;;;6.80;100.00;98363.16;4950376;29;20544;-79
2022/12/24 02:57:58;;;;;;;;;;;;;;;6.82;100.00;98361.31;4951049;29;20059;-79
2022/12/24 03:00:25;;;;;;;19.80;16.27;;;;;;;6.68;100.00;98336.16;4950568;28;19910;-79
2022/12/24 03:03:32;;;;;;;22.23;17.50;;;;;;;6.81;100.00;98345.88;4950173;28;20078;-79
2022/12/24 03:06:15;;;;;;;28.38;19.02;;;;;;;6.75;100.00;98353.03;4950274;28;20031;-79
2022/12/24 03:08:43;;;;;;;20.95;17.58;;;;;;;6.82;100.00;98350.13;4950519;29;20529;-79
2022/12/24 03:11:12;;;;;;;22.45;18.40;;;;;;;6.73;100.00;98341.09;4950098;29;20106;-79
2022/12/24 03:13:38;;;;;;;21.70;18.20;;;;;;;6.82;100.00;98363.06;4965289;28;20181;-79
2022/12/24 03:16:08;;;;;;;19.75;16.35;;;;;;;6.77;100.00;98358.13;4988893;28;20035;-79
2022/12/24 03:18:38;;;;;;;19.38;15.57;;;;;;;6.86;100.00;98362.00;4989127;28;20034;-79
2022/12/24 03:21:15;;;;;;;20.30;16.48;;;;;;;6.84;100.00;98348.31;4998339;28;20025;-79
2022/12/24 03:23:41;;;;;;;19.40;15.93;;;;;;;6.85;100.00;98348.22;5050618;28;20017;-79
2022/12/24 03:26:10;;;;;;;17.48;14.90;;;;;;;6.93;100.00;98353.84;5050463;28;20021;-79
2022/12/24 03:28:38;;;;;;;20.38;16.48;;;;;;;6.95;100.00;98364.97;5050695;28;20021;-79
2022/12/24 03:31:05;;;;;;;21.88;15.73;;;;;;;6.93;100.00;98356.41;5050382;28;20017;-79
2022/12/24 03:33:30;;;;;;;17.95;15.13;;;;;;;6.96;100.00;98376.16;5050569;28;20028;-79
2022/12/24 03:35:56;;;;;;;17.88;15.50;;;;;;;6.95;100.00;98369.28;5050401;28;20025;-79
2022/12/24 03:38:21;;;;;;;18.65;15.93;;;;;;;7.00;100.00;98373.31;5050443;28;20037;-79
2022/12/24 03:40:46;;;;;;;17.45;15.55;;;;;;;6.99;100.00;98363.88;5050788;28;20029;-79
2022/12/24 03:43:12;;;;;;;19.33;16.02;;;;;;;6.95;100.00;98364.97;5050394;28;20397;-79
2022/12/24 03:45:37;;;;;;;21.45;17.42;;;;;;;7.02;100.00;98372.38;5050506;28;20021;-79
2022/12/24 03:48:03;;;;;;;20.20;16.40;;;;;;;7.05;100.00;98380.84;5050195;28;20021;-79
2022/12/24 03:50:29;;;;;;;17.02;14.68;;;;;;;7.02;100.00;98362.88;5050535;28;20017;-79
2022/12/24 03:52:54;;;;;;;19.35;16.38;;;;;;;7.04;100.00;98363.63;5050582;28;20044;-79
2022/12/24 03:55:20;;;;;;;18.08;15.93;;;;;;;7.05;100.00;98372.22;5050412;28;20044;-79
2022/12/24 03:57:45;;;;;;;19.02;16.65;;;;;;;7.06;100.00;98387.69;5050552;28;20025;-79
2022/12/24 04:00:11;;;;;;;20.50;16.48;;;;;;;7.06;100.00;98386.84;5050593;28;20024;-79
2022/12/24 04:02:36;;;;;;;19.98;17.13;;;;;;;6.99;100.00;98379.41;5050843;28;20112;-79
2022/12/24 04:05:02;;;;;;;18.27;16.20;;;;;;;6.99;100.00;98375.97;5050006;28;20021;-79
2022/12/24 04:07:27;;;;;;;19.00;16.13;;;;;;;7.06;100.00;98382.50;5050398;28;20547;-79
2022/12/24 04:09:53;;;;;;;19.63;15.23;;;;;;;6.97;100.00;98380.41;5050324;28;20104;-79
2022/12/24 04:12:18;;;;;;;21.85;15.07;;;;;;;7.05;100.00;98382.59;5050289;28;20346;-79
2022/12/24 04:14:43;;;;;;;19.33;14.27;;;;;;;7.08;100.00;98393.63;5050771;28;20041;-79
2022/12/24 04:17:09;;;;;;;18.90;14.10;;;;;;;7.09;100.00;98392.69;5054057;28;20360;-79
2022/12/24 04:19:34;;;;;;;14.35;12.85;;;;;;;7.09;100.00;98395.28;5053871;28;20063;-78
2022/12/24 04:22:00;;;;;;;15.73;12.75;;;;;;;7.11;100.00;98397.78;5053481;28;20100;-79
2022/12/24 04:24:25;;;;;;;17.92;13.38;;;;;;;7.03;100.00;98374.88;5053881;28;20028;-79
2022/12/24 04:26:50;;;;;;;16.85;12.52;;;;;;;7.07;100.00;98383.34;5053639;28;20481;-79
2022/12/24 04:29:16;;;;;;;16.15;12.63;;;;;;;7.16;100.00;98388.00;5053457;28;20075;-79
2022/12/24 04:31:41;;;;;;;16.35;13.38;;;;;;;7.11;100.00;98380.50;5053755;28;20511;-79
2022/12/24 04:34:06;;;;;;;16.40;12.95;;;;;;;7.17;100.00;98389.72;5053440;28;20433;-79
2022/12/24 04:36:32;;;;;;;17.30;13.02;;;;;;;7.17;100.00;98385.38;5053467;28;20083;-79
2022/12/24 04:38:57;;;;;;;15.75;13.40;;;;;;;7.17;100.00;98387.97;5053524;28;20045;-79
2022/12/24 04:41:24;;;;;;;17.38;13.65;;;;;;;7.23;100.00;98399.72;5053342;28;20372;-79
2022/12/24 04:43:50;;;;;;;15.05;12.65;;;;;;;7.28;100.00;98396.91;5033590;28;20040;-79
2022/12/24 04:46:19;;;;;;;17.83;13.75;;;;;;;7.24;100.00;98391.03;5033294;28;20029;-79
2022/12/24 04:48:46;;;;;;;16.52;12.70;;;;;;;7.31;100.00;98400.16;5033622;28;20032;-79
2022/12/24 04:51:13;;;;;;;13.20;11.45;;;;;;;7.33;100.00;98398.34;5033181;28;20064;-79
2022/12/24 04:53:39;;;;;;;15.68;11.73;;;;;;;7.31;100.00;98391.56;5033527;28;20048;-79
2022/12/24 04:56:14;;;;;;;16.33;11.63;;;;;;;7.34;100.00;98388.81;5033091;28;20028;-79
2022/12/24 04:58:39;;;;;;;12.20;10.07;;;;;;;7.35;100.00;98380.13;5033301;28;20037;-80
2022/12/24 05:01:12;;;;;;;13.63;9.45;;;;;;;7.36;100.00;98389.56;5032881;28;20024;-80
2022/12/24 05:03:37;;;;;;;10.27;9.18;;;;;;;7.49;100.00;98403.53;5033035;28;20057;-80
2022/12/24 05:06:15;;;;;;;10.43;8.68;;;;;;;7.55;100.00;98415.31;5033096;28;20163;-79
2022/12/24 05:08:40;;;;;;;11.65;8.35;;;;;;;7.46;100.00;98393.34;5033142;28;20100;-79
2022/12/24 05:11:06;;;;;;;9.13;7.30;;;;;;;7.59;100.00;98409.91;5032641;28;20117;-79
2022/12/24 05:13:32;;;;;;;7.82;6.70;;;;;;;7.60;100.00;98415.91;5032997;28;20048;-79
2022/12/24 05:15:58;;;;;;;8.50;7.13;;;;;;;7.64;100.00;98415.66;5043258;28;20040;-79
2022/12/24 05:18:23;;;;;;;8.38;6.75;;;;;;;7.67;100.00;98425.88;5052505;28;20021;-79
2022/12/24 05:20:49;;;;;;;7.70;6.45;;;;;;;7.64;100.00;98414.81;5052837;28;20025;-79
2022/12/24 05:28:47;;;;;;;8.50;6.20;;;;;;;7.78;100.00;98434.78;5052186;28;20028;-79
2022/12/24 05:31:12;;;;;;;6.63;5.93;;;;;;;7.77;100.00;98433.13;5052719;28;20032;-79
2022/12/24 05:33:38;;;;;;;6.80;5.40;;;;;;;7.77;100.00;98433.97;5052408;28;20024;-79
2022/12/24 05:36:04;;;;;;;6.65;5.82;;;;;;;7.82;100.00;98444.09;5052202;28;20135;-79
2022/12/24 05:38:29;;;;;;;6.25;5.60;;;;;;;7.81;100.00;98448.44;5052223;28;20072;-80
2022/12/24 05:40:54;;;;;;;7.30;5.85;;;;;;;7.77;100.00;98435.72;5052342;28;20017;-79
2022/12/24 05:43:20;;;;;;;9.98;6.82;;;;;;;7.80;100.00;98445.94;5051949;28;20021;-80
2022/12/24 05:45:45;;;;;;;9.57;6.40;;;;;;;7.85;100.00;98459.47;5052196;28;20067;-80
2022/12/24 05:48:10;;;;;;;6.35;5.75;;;;;;;7.86;100.00;98464.56;5052180;28;20079;-80
2022/12/24 05:50:38;;;;;;;7.55;6.53;;;;;;;7.78;100.00;98448.59;5052173;28;20468;-80
2022/12/24 05:53:04;;;;;;;8.35;5.85;;;;;;;7.81;100.00;98471.75;5051924;28;20172;-80
2022/12/24 05:55:29;;;;;;;9.77;6.88;;;;;;;7.90;100.00;98478.19;5052086;28;20451;-80
2022/12/24 05:57:54;;;;;;;6.93;6.03;;;;;;;7.90;100.00;98485.97;5051904;28;20483;-80
2022/12/24 06:00:20;;;;;;;7.28;6.00;;;;;;;7.86;100.00;98477.53;5051722;28;20100;-80
2022/12/24 06:02:45;;;;;;;10.55;6.82;;;;;;;7.72;100.00;98454.94;5051963;28;20044;-80
2022/12/24 06:05:11;;;;;;;7.78;6.78;;;;;;;7.93;100.00;98491.84;5051637;28;20025;-80
2022/12/24 06:07:37;;;;;;;8.30;6.65;;;;;;;7.91;100.00;98498.84;5051794;28;20016;-80
2022/12/24 06:10:04;;;;;;;8.75;5.97;;;;;;;7.85;100.00;98491.41;5051489;28;20028;-80
2022/12/24 06:12:29;;;;;;;6.93;5.95;;;;;;;7.87;100.00;98491.31;5051603;28;20466;-80
2022/12/24 06:14:54;;;;;;;6.72;5.72;;;;;;;7.86;100.00;98498.25;5051842;28;20107;-80
2022/12/24 06:17:20;;;;;;;7.22;5.97;;;;;;;7.85;100.00;98488.00;5051480;28;20025;-80
2022/12/24 06:19:45;;;;;;;6.57;5.88;;;;;;;7.83;100.00;98485.47;5051745;28;20056;-79
2022/12/24 06:22:10;;;;;;;8.05;6.22;;;;;;;7.91;100.00;98511.81;5051482;28;20028;-79
2022/12/24 06:24:36;;;;;;;7.05;6.35;;;;;;;7.91;100.00;98514.41;5051403;28;20021;-79
2022/12/24 06:27:01;;;;;;;6.30;5.72;;;;;;;7.84;100.00;98507.91;5050936;28;20025;-79
2022/12/24 06:29:26;;;;;;;8.45;6.38;;;;;;;7.88;100.00;98522.38;5051546;28;20048;-79
2022/12/24 06:31:52;;;;;;;9.55;7.53;;;;;;;7.84;100.00;98517.44;5051746;28;20126;-79
2022/12/24 06:34:17;;;;;;;7.80;7.00;;;;;;;7.90;100.00;98530.88;5051194;28;20025;-79
2022/12/24 06:36:42;;;;;;;9.20;7.85;;;;;;;7.91;100.00;98524.78;5051119;28;20017;-79
2022/12/24 06:39:08;;;;;;;9.23;7.72;;;;;;;7.86;100.00;98512.97;5050755;28;20043;-79
2022/12/24 06:41:33;;;;;;;9.52;8.52;;;;;;;7.83;100.00;98529.53;5051128;28;20028;-79
2022/12/24 06:43:58;;;;;;;10.57;9.32;;;;;;;7.90;100.00;98540.41;5051100;28;20116;-78
2022/12/24 06:46:24;;;;;;;11.13;9.55;;;;;;;7.91;100.00;98552.47;5051078;28;20045;-79
2022/12/24 06:48:49;;;;;;;11.45;10.10;;;;;;;7.88;100.00;98550.88;5051015;28;20024;-80
2022/12/24 06:51:18;;;;;;;13.23;9.95;;;;;;;7.89;100.00;98554.31;5050824;28;20021;-80
2022/12/24 06:53:44;;;;;;;12.23;10.63;;;;;;;7.86;100.00;98557.06;5051023;28;20025;-78
2022/12/24 06:56:11;;;;;;;12.25;10.98;;;;;;;7.82;100.00;98555.53;5050603;28;20497;-80
2022/12/24 06:58:38;;;;;;;15.65;12.80;;;;;;;7.83;100.00;98555.44;5051093;28;20029;-80
2022/12/24 07:01:05;;;;;;;12.85;11.50;;;;;;;7.86;100.00;98564.84;5042589;28;20029;-81
2022/12/24 07:03:30;;;;;;;13.25;11.95;;;;;;;7.81;100.00;98565.06;5030690;28;20025;-81
2022/12/24 07:05:56;;;;;;;14.35;12.73;;;;;;;7.78;100.00;98567.00;5031024;28;20026;-81
2022/12/24 07:08:22;;;;;;;15.80;14.15;;;;;;;7.80;100.00;98578.97;5030665;28;20491;-81
2022/12/24 07:10:48;;;;;;;15.30;12.68;;;;;;;7.81;100.00;98600.53;5030861;28;20017;-81
2022/12/24 07:13:14;;;;;;;14.68;13.05;;;;;;;7.79;100.00;98598.00;5030899;28;20104;-81
2022/12/24 07:15:39;;;;;;;15.18;13.57;;;;;;;7.78;100.00;98604.09;5031289;28;20100;-81
2022/12/24 07:18:04;;;;;;;15.82;12.95;;;;;;;7.76;100.00;98600.78;5030772;28;20049;-81
2022/12/24 07:20:30;;;;;;;14.82;13.30;;;;;;;7.69;100.00;98609.78;5030850;28;20029;-81
2022/12/24 07:22:55;;;;;;;14.38;12.73;;;;;;;7.74;100.00;98620.75;5041918;28;20028;-81
2022/12/24 07:25:20;;;;;;;14.07;12.18;;;;;;;7.71;100.00;98623.47;5051165;28;20040;-80
2022/12/24 07:27:46;;;;;;;15.98;12.90;;;;;;;7.67;100.00;98622.81;5050455;28;20032;-80
2022/12/24 07:30:11;;;;;;;14.00;12.32;;;;;;;7.65;100.00;98637.59;5051596;28;20457;-80
2022/12/24 07:32:36;;;;;;;13.70;11.50;;;;;;;7.68;100.00;98646.97;5051795;28;20100;-80
2022/12/24 07:35:02;;;;;;;15.30;13.02;;;;;;;7.66;100.00;98652.22;5051313;28;20094;-81
2022/12/24 07:37:27;;;;;;;13.65;12.30;;;;;;;7.58;100.00;98645.75;5050283;28;20029;-80
2022/12/24 07:39:53;;;;;;;15.65;13.75;;;;;;;7.59;100.00;98665.59;5051187;28;20048;-80
2022/12/24 07:42:18;;;;;;;15.65;13.40;;;;;;;7.60;100.00;98670.69;5051391;28;20021;-80
2022/12/24 07:44:43;;;;;;;14.88;13.27;;;;;;;7.64;100.00;98674.81;5051433;28;20052;-80
2022/12/24 07:47:09;;;;;;;16.38;13.45;;;;;;;7.63;100.00;98686.09;5051326;28;20021;-80
2022/12/24 07:49:35;;;;;;;16.10;12.32;;;;;;;7.66;100.00;98687.66;5051465;28;20025;-80
2022/12/24 07:52:00;;;;;;;13.90;12.13;;;;;;;7.61;100.00;98677.53;5055660;28;20054;-81
2022/12/24 07:54:26;;;;;;;14.85;11.18;;;;;;;7.71;100.00;98693.47;5055130;28;20025;-81
2022/12/24 07:56:51;;;;;;;13.52;11.65;;;;;;;7.71;100.00;98706.41;5055524;28;20044;-80
2022/12/24 07:59:16;;;;;;;13.73;11.43;;;;;;;7.68;100.00;98701.41;5055305;28;20059;-81
2022/12/24 08:01:42;;;;;;;16.02;13.10;;;;;;;7.75;100.00;98710.53;5055184;28;20043;-81
2022/12/24 08:04:07;;;;;;;14.52;11.52;;;;;;;7.66;100.00;98708.41;5054830;28;20498;-82
2022/12/24 08:06:32;;;;;;;16.17;13.48;;;;;;;7.75;100.00;98718.31;5053917;28;20616;-81
2022/12/24 08:08:58;;;;;;;12.32;10.57;;;;;;;7.71;100.00;98725.44;5054986;28;20044;-81
2022/12/24 08:11:23;;;;;;;15.00;12.27;;;;;;;7.69;100.00;98722.06;5055040;28;20024;-81
2022/12/24 08:13:48;;;;;;;13.50;12.00;;;;;;;7.66;100.00;98729.97;5055293;28;20024;-81
2022/12/24 08:16:14;;;;;;;14.70;12.93;;;;;;;7.65;100.00;98728.31;5054754;28;20021;-81
2022/12/24 08:18:39;;;;;;;14.23;12.73;;;;;;;7.68;100.00;98740.28;5054879;28;20108;-80
2022/12/24 08:21:08;;;;;;;17.17;13.52;;;;;;;7.67;100.00;98739.44;5054427;28;20104;-80
2022/12/24 08:23:35;;;;;;;16.00;13.80;;;;;;;7.65;100.00;98748.19;5054664;28;20104;-80
2022/12/24 08:26:00;;;;;;;16.80;13.80;;;;;;;7.66;100.00;98755.88;5054951;28;20046;-80
2022/12/24 08:28:26;;;;;;;18.30;13.80;;;;;;;7.58;100.00;98755.41;5054647;28;20573;-80
2022/12/24 08:30:52;;;;;;;14.82;12.70;;;;;;;7.64;100.00;98772.44;5045804;28;20120;-80
2022/12/24 08:33:18;;;;;;;15.23;12.32;;;;;;;7.65;100.00;98771.53;5044930;28;20029;-80
2022/12/24 08:35:52;;;;;;;13.40;11.90;;;;;;;7.60;100.00;98781.28;5045979;28;20104;-82
2022/12/24 08:38:18;;;;;;;14.40;12.35;;;;;;;7.53;100.00;98782.47;5053924;28;20041;-82
2022/12/24 08:40:46;;;;;;;14.10;12.38;;;;;;;7.57;100.00;98795.22;5048659;28;20036;-80
2022/12/24 08:43:11;;;;;;;17.58;14.20;;;;;;;7.56;100.00;98805.66;5054096;28;20025;-81
2022/12/24 08:45:38;;;;;;;17.60;14.10;;;;;;;7.56;100.00;98809.09;5049207;28;20057;-80
2022/12/24 08:48:04;;;;;;;16.70;13.77;;;;;;;7.52;100.00;98807.56;5038804;28;20024;-80
2022/12/24 08:50:30;;;;;;;15.60;13.68;;;;;;;7.50;100.00;98807.63;5043415;28;20052;-80
2022/12/24 08:52:55;;;;;;;17.33;13.88;;;;;;;7.48;100.00;98800.84;5041552;28;20438;-81
2022/12/24 08:55:20;;;;;;;20.42;16.65;;;;;;;7.50;100.00;98820.59;5044556;28;20055;-82
2022/12/24 08:57:46;;;;;;;19.20;14.00;;;;;;;7.52;100.00;98833.47;5053786;28;20071;-82
2022/12/24 09:00:12;;;;;;;15.80;12.80;;;;;;;7.52;100.00;98812.75;5053447;28;20016;-82
2022/12/24 09:02:37;;;;;;;14.82;12.73;;;;;;;7.59;100.00;98826.25;5052498;28;20116;-81
2022/12/24 09:05:03;;;;;;;15.10;12.90;;;;;;;7.60;100.00;98840.88;5052373;28;20109;-81
2022/12/24 09:07:29;;;;;;;18.45;14.23;;;;;;;7.59;100.00;98831.44;5052381;28;20036;-81
2022/12/24 09:09:54;;;;;;;16.35;13.45;;;;;;;7.59;100.00;98842.63;5053926;28;20158;-81
2022/12/24 09:12:19;;;;;;;15.23;12.45;;;;;;;7.57;100.00;98830.66;5053488;28;20025;-82
2022/12/24 09:14:45;;;;;;;17.00;13.88;;;;;;;7.57;100.00;98821.13;5052373;28;20060;-81
2022/12/24 09:17:10;;;;;;;16.60;13.73;;;;;;;7.69;100.00;98830.06;5051875;28;20020;-82
2022/12/24 09:19:35;;;;;;;15.90;12.43;;;;;;;7.85;100.00;98838.78;5052236;28;20054;-81
2022/12/24 09:22:01;;;;;;;15.70;12.68;;;;;;;7.97;100.00;98838.19;5053055;28;20021;-81
2022/12/24 09:24:26;;;;;;;15.18;13.57;;;;;;;7.94;100.00;98830.56;5053039;28;20017;-81
2022/12/24 09:26:51;;;;;;;14.57;12.60;;;;;;;8.09;100.00;98849.72;5053306;28;20033;-81
2022/12/24 09:29:17;;;;;;;13.23;11.35;;;;;;;8.12;100.00;98848.72;5053190;28;20024;-81
2022/12/24 09:31:42;;;;;;;14.60;10.43;;;;;;;8.21;100.00;98856.03;5053175;28;20460;-84
2022/12/24 09:34:08;;;;;;;12.57;10.80;;;;;;;8.28;100.00;98861.78;5051902;28;20025;-81
2022/12/24 09:36:34;;;;;;;11.68;9.85;;;;;;;8.30;100.00;98868.59;5048239;28;20416;-83
2022/12/24 09:38:59;;;;;;;11.23;9.15;;;;;;;8.23;100.00;98860.25;5033101;28;20477;-82
2022/12/24 09:41:46;;;;;;;12.73;10.23;;;;;;;8.15;100.00;98843.41;5044607;28;20078;-86
2022/12/24 09:44:53;;;;;;;14.63;10.45;;;;;;;8.37;100.00;98871.72;5050840;28;20029;-83
2022/12/24 09:47:37;;;;;;;14.00;10.73;;;;;;;8.37;100.00;98887.28;5046316;28;20033;-84
2022/12/24 09:50:20;;;;;;;15.68;11.65;;;;;;;8.42;100.00;98883.53;5055115;28;20372;-84
2022/12/24 09:52:47;;;;;;;11.05;9.65;;;;;;;8.40;100.00;98884.56;5049560;28;20530;-84
2022/12/24 09:55:30;;;;;;;11.75;9.45;;;;;;;8.41;100.00;98894.84;5032543;28;20036;-85
2022/12/24 09:57:58;;;;;;;12.80;9.98;;;;;;;8.28;100.00;98878.19;5032888;28;20054;-81
2022/12/24 10:00:29;;;;;;;11.55;9.63;;;;;;;8.19;100.00;98874.28;5032862;28;20025;-85
2022/12/24 10:02:56;;;;;;;11.02;8.90;;;;;;;8.17;100.00;98891.66;5048098;28;20460;-83
2022/12/24 10:05:59;;;;;;;11.77;9.05;;;;;;;8.19;100.00;98902.81;5051168;28;20059;-83
2022/12/24 10:08:39;;;;;;;11.63;9.00;;;;;;;8.12;100.00;98908.38;5029998;28;20034;-82
2022/12/24 10:12:00;;;;;;;12.00;8.83;;;;;;;8.02;100.00;98913.19;5030254;28;20033;-83
2022/12/24 10:14:47;;;;;;;12.88;9.40;;;;;;;7.94;100.00;98920.47;4880892;29;20044;-82
2022/12/24 10:17:44;;;;;;;9.38;8.38;;;;;;;7.86;100.00;98926.03;4878174;29;20047;-84
2022/12/24 10:20:47;;;;;;;9.85;8.40;;;;;;;7.82;100.00;98929.66;4885602;29;20036;-82
2022/12/24 10:23:21;;;;;;;12.10;10.50;;;;;;;7.77;100.00;98943.78;4891037;29;20044;-83
2022/12/24 10:25:58;;;;;;;16.95;12.02;;;;;;;7.73;100.00;98953.44;4876163;29;20040;-82
2022/12/24 10:28:33;;;;;;;11.55;9.75;;;;;;;7.66;100.00;98952.03;4875963;29;20092;-82
2022/12/24 10:31:02;;;;;;;9.55;7.68;;;;;;;7.63;100.00;98953.03;4876148;29;20409;-84
2022/12/24 10:33:33;;;;;;;9.05;7.55;;;;;;;7.75;100.00;98967.16;4878040;29;20037;-82
2022/12/24 10:35:59;;;;;;;9.50;8.00;;;;;;;7.78;100.00;98961.84;4882615;29;20599;-83
2022/12/24 10:38:25;;;;;;;9.25;8.05;;;;;;;7.82;100.00;98965.13;4875638;29;20045;-83
2022/12/24 10:40:53;;;;;;;8.85;7.35;;;;;;;7.85;100.00;98970.19;4876321;29;20393;-83
2022/12/24 10:43:21;;;;;;;7.88;6.63;;;;;;;7.83;100.00;98957.28;4875962;29;20036;-80
2022/12/24 10:45:51;;;;;;;7.03;5.65;;;;;;;7.81;100.00;98971.22;4924760;29;20487;-80
2022/12/24 10:48:26;;;;;;;7.47;6.07;;;;;;;7.74;100.00;98970.66;4957731;28;20113;-80
2022/12/24 10:51:04;;;;;;;8.60;6.13;;;;;;;7.76;100.00;98974.03;5018496;28;20037;-80
2022/12/24 10:53:33;;;;;;;7.57;6.18;;;;;;;7.75;100.00;98988.75;5051662;28;20035;-80
2022/12/24 10:56:04;;;;;;;7.55;6.50;;;;;;;7.69;100.00;98990.78;5047622;28;20029;-81
2022/12/24 10:58:30;;;;;;;8.50;6.93;;;;;;;7.68;100.00;99002.06;5041626;28;20024;-81
2022/12/24 11:00:55;;;;;;;8.20;6.45;;;;;;;7.66;100.00;98998.69;5036822;28;20369;-81
2022/12/24 11:03:22;;;;;;;8.93;6.65;;;;;;;7.68;100.00;99002.06;5030321;28;20013;-78
2022/12/24 11:06:14;;;;;;;8.65;6.43;;;;;;;7.73;100.00;99006.13;5031749;28;20033;-78
2022/12/24 11:08:43;;;;;;;7.40;6.20;;;;;;;7.71;100.00;98992.41;5032153;28;20033;-78
2022/12/24 11:11:19;;;;;;;10.48;7.10;;;;;;;7.73;100.00;99002.69;5032079;28;20017;-78
2022/12/24 11:13:54;;;;;;;9.65;8.23;;;;;;;7.68;100.00;99000.31;5050025;28;20078;-86
2022/12/24 11:16:30;;;;;;;10.65;7.80;;;;;;;7.75;100.00;99025.03;5049949;28;20036;-81
2022/12/24 11:18:58;;;;;;;16.73;9.27;;;;;;;7.77;100.00;99030.16;5051734;28;20083;-78
2022/12/24 11:21:25;;;;;;;13.43;9.75;;;;;;;7.71;100.00;99017.44;5051452;28;20028;-79
2022/12/24 11:23:54;;;;;;;17.48;11.00;;;;;;;7.68;100.00;99015.84;5051378;28;20029;-79
2022/12/24 11:26:21;;;;;;;16.13;11.55;;;;;;;7.73;100.00;99013.06;5054640;28;20033;-78
2022/12/24 11:29:10;;;;;;;15.88;11.55;;;;;;;7.78;100.00;99031.81;5055727;28;20020;-78
2022/12/24 11:31:36;;;;;;;14.45;9.82;;;;;;;7.79;100.00;99030.06;5055711;28;20028;-79
2022/12/24 11:34:20;;;;;;;13.23;9.60;;;;;;;7.78;100.00;99023.22;5055696;28;20020;-79
2022/12/24 11:36:45;;;;;;;13.02;9.80;;;;;;;7.82;100.00;99030.78;5055770;28;20021;-79